Time;durP1;ratioP1;P1;durP2;ratioP2;P2;SDS_P1;SDS_P2;PMS_P1;PMS_P2;Temp;Humidity;BMP_temperature;BMP_pressure;BME280_temperature;BME280_humidity;BME280_pressure;Samples;Min_cycle;Max_cycle;Signal;HPM_P1;HPM_P2
2024/01/11 00:00:22;;;;;;;;;;;15.80;48.70;;;;;;10238850;28;94358;-44
2024/01/11 00:05:24;;;;;;;;;;;15.70;48.80;;;;;;10238730;28;95179;-44
2024/01/11 00:10:26;;;;;;;;;;;15.70;48.90;;;;;;10220031;28;94193;-44
2024/01/11 00:15:28;;;;;;;;;;;15.70;48.60;;;;;;10221796;28;94447;-43
2024/01/11 00:20:30;;;;;;;;;;;15.90;48.40;;;;;;10231508;28;93723;-43
2024/01/11 00:25:32;;;;;;;;;;;15.90;48.10;;;;;;10232577;28;94751;-43
2024/01/11 00:30:34;;;;;;;;;;;16.00;48.00;;;;;;10228720;28;93565;-44
2024/01/11 00:35:36;;;;;;;;;;;16.00;47.70;;;;;;10239568;28;95859;-42
2024/01/11 00:40:38;;;;;;;;;;;15.90;47.50;;;;;;10235393;28;94137;-43
2024/01/11 00:45:40;;;;;;;;;;;15.90;47.40;;;;;;10230160;28;95848;-43
2024/01/11 00:50:42;;;;;;;;;;;15.80;47.60;;;;;;10229988;28;93514;-42
2024/01/11 00:55:44;;;;;;;;;;;15.80;48.20;;;;;;10230691;28;93283;-43
2024/01/11 01:00:46;;;;;;;;;;;15.80;48.20;;;;;;10234332;28;96173;-44
2024/01/11 01:05:47;;;;;;;;;;;15.80;48.10;;;;;;10216690;28;95190;-42
2024/01/11 01:10:49;;;;;;;;;;;15.80;47.90;;;;;;10226784;28;93477;-42
2024/01/11 01:15:51;;;;;;;;;;;15.80;47.70;;;;;;10235785;28;93283;-45
2024/01/11 01:20:53;;;;;;;;;;;15.80;47.70;;;;;;10230351;28;91832;-45
2024/01/11 01:25:55;;;;;;;;;;;15.80;47.60;;;;;;10232727;28;94042;-54
2024/01/11 01:30:57;;;;;;;;;;;15.90;47.40;;;;;;10242981;28;93597;-43
2024/01/11 01:35:59;;;;;;;;;;;15.90;47.20;;;;;;10224136;28;96175;-44
2024/01/11 01:41:01;;;;;;;;;;;15.80;47.00;;;;;;10206961;28;93384;-43
2024/01/11 01:46:03;;;;;;;;;;;15.80;47.20;;;;;;10248246;28;93472;-42
2024/01/11 01:51:06;;;;;;;;;;;15.70;47.70;;;;;;10244613;28;93466;-48
2024/01/11 01:56:08;;;;;;;;;;;15.70;47.80;;;;;;10222306;28;93380;-43
2024/01/11 02:06:32;;;;;;;;;;;15.80;47.30;;;;;;8796771;22;93624;-63
2024/01/11 02:11:33;;;;;;;;;;;15.80;47.20;;;;;;10244662;28;93072;-63
2024/01/11 02:16:36;;;;;;;;;;;15.70;47.00;;;;;;10220028;28;94257;-63
2024/01/11 02:21:38;;;;;;;;;;;15.80;47.10;;;;;;10243543;28;94545;-67
2024/01/11 02:26:59;;;;;;;;;;;15.80;46.80;;;;;;10196131;28;96857;-63
2024/01/11 02:32:02;;;;;;;;;;;15.70;46.60;;;;;;10240163;28;93786;-63
2024/01/11 02:37:05;;;;;;;;;;;15.70;46.50;;;;;;10216391;28;94591;-63
2024/01/11 02:42:07;;;;;;;;;;;15.70;47.00;;;;;;10224592;28;93434;-63
2024/01/11 02:47:09;;;;;;;;;;;15.70;47.30;;;;;;10221749;28;93953;-63
2024/01/11 02:52:11;;;;;;;;;;;15.70;47.20;;;;;;10215919;28;94507;-63
2024/01/11 02:57:12;;;;;;;;;;;15.70;47.00;;;;;;10231073;28;94499;-62
2024/01/11 03:02:14;;;;;;;;;;;15.70;46.80;;;;;;10227148;28;92762;-63
2024/01/11 03:07:16;;;;;;;;;;;15.70;46.90;;;;;;10240125;28;93470;-63
2024/01/11 03:12:18;;;;;;;;;;;15.70;46.70;;;;;;10230523;28;93502;-63
2024/01/11 03:17:20;;;;;;;;;;;15.80;46.60;;;;;;10221549;28;96776;-63
2024/01/11 03:22:22;;;;;;;;;;;15.80;46.50;;;;;;10239114;28;94322;-63
2024/01/11 03:27:23;;;;;;;;;;;15.80;46.40;;;;;;10211861;28;94331;-63
2024/01/11 03:32:25;;;;;;;;;;;15.70;46.30;;;;;;10219659;28;94756;-63
2024/01/11 03:37:27;;;;;;;;;;;15.80;46.70;;;;;;10240790;28;94211;-63
2024/01/11 03:42:29;;;;;;;;;;;15.80;46.80;;;;;;10238484;28;94546;-63
2024/01/11 03:47:31;;;;;;;;;;;15.80;46.70;;;;;;10241550;28;93795;-63
2024/01/11 03:52:33;;;;;;;;;;;15.80;46.70;;;;;;10233090;28;93634;-64
2024/01/11 03:57:35;;;;;;;;;;;15.80;46.70;;;;;;10228460;28;94579;-63
2024/01/11 04:02:36;;;;;;;;;;;15.80;46.40;;;;;;10226546;28;93368;-64
2024/01/11 04:07:38;;;;;;;;;;;15.80;46.20;;;;;;10224005;28;95881;-63
2024/01/11 04:12:40;;;;;;;;;;;15.80;46.10;;;;;;10220476;28;93469;-63
2024/01/11 04:17:42;;;;;;;;;;;15.80;46.00;;;;;;10234947;28;93493;-63
2024/01/11 04:22:44;;;;;;;;;;;15.80;46.00;;;;;;10244862;28;94436;-61
2024/01/11 04:27:46;;;;;;;;;;;15.80;46.00;;;;;;10234384;28;94575;-62
2024/01/11 04:32:48;;;;;;;;;;;15.80;46.30;;;;;;10234123;28;94672;-63
2024/01/11 04:37:50;;;;;;;;;;;15.80;46.50;;;;;;10221724;28;94379;-63
2024/01/11 04:42:52;;;;;;;;;;;15.80;46.60;;;;;;10225008;28;93747;-64
2024/01/11 04:47:54;;;;;;;;;;;15.80;46.50;;;;;;10233200;28;94794;-63
2024/01/11 04:52:56;;;;;;;;;;;15.90;46.30;;;;;;10228015;28;93438;-63
2024/01/11 04:57:58;;;;;;;;;;;15.90;46.10;;;;;;10208858;28;96779;-63
2024/01/11 05:03:00;;;;;;;;;;;15.90;46.00;;;;;;10246021;28;93541;-63
2024/01/11 05:08:02;;;;;;;;;;;15.90;46.10;;;;;;10243145;28;93139;-63
2024/01/11 05:13:04;;;;;;;;;;;15.90;46.00;;;;;;10224314;28;94540;-63
2024/01/11 05:18:05;;;;;;;;;;;16.00;45.80;;;;;;10239128;28;93425;-63
2024/01/11 05:23:08;;;;;;;;;;;16.00;45.70;;;;;;10250208;28;94431;-62
2024/01/11 05:28:10;;;;;;;;;;;16.00;45.60;;;;;;10255415;28;93449;-62
2024/01/11 05:33:15;;;;;;;;;;;15.90;45.70;;;;;;10232991;28;92862;-62
2024/01/11 05:38:19;;;;;;;;;;;16.00;45.70;;;;;;10251339;28;93970;-62
2024/01/11 05:43:23;;;;;;;;;;;16.10;45.70;;;;;;10239225;28;94060;-63
2024/01/11 05:48:25;;;;;;;;;;;16.20;46.60;;;;;;10243254;28;96110;-62
2024/01/11 05:53:27;;;;;;;;;;;16.40;45.30;;;;;;10239406;28;93716;-63
2024/01/11 05:58:29;;;;;;;;;;;16.70;44.70;;;;;;10239794;28;93084;-63
2024/01/11 06:03:33;;;;;;;;;;;16.80;44.30;;;;;;10239017;28;93568;-63
2024/01/11 06:08:35;;;;;;;;;;;16.90;44.10;;;;;;10253749;28;93429;-62
2024/01/11 06:13:40;;;;;;;;;;;17.00;44.10;;;;;;10249347;28;93500;-63
2024/01/11 06:18:41;;;;;;;;;;;17.10;44.10;;;;;;10236125;28;94424;-62
2024/01/11 06:23:43;;;;;;;;;;;17.20;43.80;;;;;;10243640;28;93453;-63
2024/01/11 06:28:46;;;;;;;;;;;17.30;43.70;;;;;;10250183;28;93365;-63
2024/01/11 06:33:47;;;;;;;;;;;17.30;43.90;;;;;;10247140;28;93807;-63
2024/01/11 06:38:52;;;;;;;;;;;17.20;45.40;;;;;;10238499;28;95889;-63
2024/01/11 06:43:54;;;;;;;;;;;17.20;47.40;;;;;;10236955;28;93598;-64
2024/01/11 06:48:59;;;;;;;;;;;17.20;45.80;;;;;;10223962;28;94528;-63
2024/01/11 06:54:01;;;;;;;;;;;17.20;45.80;;;;;;10225146;28;93823;-64
2024/01/11 06:59:03;;;;;;;;;;;17.10;46.50;;;;;;10232830;28;94217;-64
2024/01/11 07:04:05;;;;;;;;;;;17.10;46.80;;;;;;10240199;28;94373;-65
2024/01/11 07:09:07;;;;;;;;;;;17.20;47.20;;;;;;10226384;28;93746;-64
2024/01/11 07:14:09;;;;;;;;;;;17.30;47.10;;;;;;10232737;28;93815;-65
2024/01/11 07:19:11;;;;;;;;;;;17.30;46.80;;;;;;10236545;28;94127;-64
2024/01/11 07:24:13;;;;;;;;;;;17.20;46.50;;;;;;10232123;28;95020;-63
2024/01/11 07:29:15;;;;;;;;;;;17.10;46.50;;;;;;10221580;28;96966;-63
2024/01/11 07:34:17;;;;;;;;;;;16.90;46.60;;;;;;10211392;28;94534;-63
2024/01/11 07:39:21;;;;;;;;;;;16.80;46.90;;;;;;10239868;28;94656;-63
2024/01/11 07:44:23;;;;;;;;;;;16.60;47.10;;;;;;10214419;28;94576;-63
2024/01/11 07:49:25;;;;;;;;;;;16.50;47.30;;;;;;10229962;28;93922;-60
2024/01/11 07:54:27;;;;;;;;;;;16.30;47.60;;;;;;10239374;28;93458;-63
2024/01/11 07:59:32;;;;;;;;;;;16.20;47.80;;;;;;10214884;28;93454;-63
2024/01/11 08:04:44;;;;;;;;;;;16.00;47.90;;;;;;10367923;28;88400;-43
2024/01/11 08:09:47;;;;;;;;;;;15.90;48.10;;;;;;10369159;27;89897;-43
2024/01/11 08:14:49;;;;;;;;;;;15.80;48.20;;;;;;10357960;28;89315;-45
2024/01/11 08:19:51;;;;;;;;;;;15.70;48.30;;;;;;10363404;28;88106;-42
2024/01/11 08:24:53;;;;;;;;;;;15.60;48.40;;;;;;10365663;28;88504;-45
2024/01/11 08:29:55;;;;;;;;;;;15.50;48.40;;;;;;10363506;28;89037;-43
2024/01/11 08:34:57;;;;;;;;;;;15.50;48.50;;;;;;10362335;28;88298;-44
2024/01/11 08:39:59;;;;;;;;;;;15.40;48.50;;;;;;10364735;28;89417;-43
2024/01/11 08:45:06;;;;;;;;;;;15.40;48.50;;;;;;10361883;28;88862;-44
2024/01/11 08:50:11;;;;;;;;;;;15.30;48.50;;;;;;10364485;28;88440;-47
2024/01/11 08:55:13;;;;;;;;;;;15.20;48.50;;;;;;10361703;28;88600;-47
2024/01/11 09:00:17;;;;;;;;;;;15.30;48.50;;;;;;10361949;28;89150;-42
2024/01/11 09:05:21;;;;;;;;;;;15.40;48.30;;;;;;10358089;28;88963;-42
2024/01/11 09:10:23;;;;;;;;;;;15.50;48.10;;;;;;10364066;28;88567;-42
2024/01/11 09:15:24;;;;;;;;;;;15.60;47.70;;;;;;10339672;28;89780;-47
2024/01/11 09:20:26;;;;;;;;;;;15.60;47.50;;;;;;10335309;28;89325;-44
2024/01/11 09:25:28;;;;;;;;;;;15.60;47.50;;;;;;10334622;28;89519;-41
2024/01/11 09:30:30;;;;;;;;;;;15.60;47.50;;;;;;10334395;28;89624;-43
2024/01/11 09:35:32;;;;;;;;;;;15.50;47.50;;;;;;10325152;28;87911;-42
2024/01/11 09:40:34;;;;;;;;;;;15.40;47.60;;;;;;10306585;28;88425;-60
2024/01/11 09:45:36;;;;;;;;;;;15.40;47.70;;;;;;10334638;28;89489;-44
2024/01/11 09:50:39;;;;;;;;;;;15.30;47.80;;;;;;10334392;28;89396;-45
2024/01/11 09:55:41;;;;;;;;;;;15.20;47.90;;;;;;10335329;28;88337;-51
2024/01/11 10:00:44;;;;;;;;;;;15.20;47.90;;;;;;10333673;28;88236;-44
2024/01/11 10:05:48;;;;;;;;;;;15.10;48.10;;;;;;10334458;28;89043;-48
2024/01/11 10:10:50;;;;;;;;;;;15.10;48.10;;;;;;10334566;28;89135;-44
2024/01/11 10:15:52;;;;;;;;;;;15.10;48.40;;;;;;10322082;28;88287;-45
2024/01/11 10:20:56;;;;;;;;;;;15.10;48.30;;;;;;10331530;28;89701;-45
2024/01/11 10:25:59;;;;;;;;;;;15.30;48.20;;;;;;10310933;28;89671;-45
2024/01/11 10:31:01;;;;;;;;;;;15.40;47.90;;;;;;10333156;28;88309;-45
2024/01/11 10:36:04;;;;;;;;;;;15.50;47.70;;;;;;10333248;28;88424;-46
2024/01/11 10:41:06;;;;;;;;;;;15.60;47.50;;;;;;10338769;28;89239;-43
2024/01/11 10:46:10;;;;;;;;;;;15.50;47.40;;;;;;10332650;28;89279;-41
2024/01/11 10:51:15;;;;;;;;;;;15.50;47.40;;;;;;10332371;28;88857;-46
2024/01/11 10:56:17;;;;;;;;;;;15.50;47.60;;;;;;10330542;28;89213;-43
2024/01/11 11:01:20;;;;;;;;;;;15.50;47.50;;;;;;10325442;28;89011;-46
2024/01/11 11:06:22;;;;;;;;;;;15.60;47.50;;;;;;10328573;28;89312;-42
2024/01/11 11:11:24;;;;;;;;;;;15.60;47.40;;;;;;10331038;28;88766;-42
2024/01/11 11:16:26;;;;;;;;;;;15.50;47.40;;;;;;10332285;28;88132;-42
2024/01/11 11:21:28;;;;;;;;;;;15.40;47.40;;;;;;10318062;28;89128;-42
2024/01/11 11:26:32;;;;;;;;;;;15.50;47.70;;;;;;10332324;28;89308;-44
2024/01/11 11:31:36;;;;;;;;;;;15.50;47.60;;;;;;10332352;28;88389;-43
2024/01/11 11:36:44;;;;;;;;;;;15.50;47.50;;;;;;10330333;28;89369;-43
2024/01/11 11:41:47;;;;;;;;;;;15.50;47.50;;;;;;10324250;28;90617;-43
2024/01/11 11:46:49;;;;;;;;;;;15.50;47.60;;;;;;10331050;28;90214;-42
2024/01/11 11:51:55;;;;;;;;;;;15.40;47.70;;;;;;10329924;28;89599;-45
2024/01/11 11:56:57;;;;;;;;;;;15.40;47.80;;;;;;10329468;28;89328;-44
2024/01/11 12:01:59;;;;;;;;;;;15.50;47.70;;;;;;10338979;28;90382;-41
2024/01/11 12:07:01;;;;;;;;;;;15.50;47.80;;;;;;10330639;28;89225;-41
2024/01/11 12:12:04;;;;;;;;;;;15.50;47.80;;;;;;10329900;28;88556;-43
2024/01/11 12:17:16;;;;;;;;;;;15.30;48.70;;;;;;10344044;28;89919;-46
2024/01/11 12:22:19;;;;;;;;;;;15.40;48.10;;;;;;10329911;28;88900;-42
2024/01/11 12:27:21;;;;;;;;;;;15.40;47.90;;;;;;10319507;28;88165;-42
2024/01/11 12:32:22;;;;;;;;;;;15.40;47.90;;;;;;10329622;28;88261;-42
2024/01/11 12:37:24;;;;;;;;;;;15.40;47.80;;;;;;10319556;28;88475;-41
2024/01/11 12:42:29;;;;;;;;;;;15.40;47.90;;;;;;10330422;28;89282;-43
2024/01/11 12:47:31;;;;;;;;;;;15.30;48.00;;;;;;10331487;28;88214;-41
2024/01/11 12:52:33;;;;;;;;;;;15.40;48.10;;;;;;10336479;28;88097;-42
2024/01/11 12:57:35;;;;;;;;;;;15.50;48.00;;;;;;10336330;28;89235;-42
2024/01/11 13:02:37;;;;;;;;;;;15.40;47.90;;;;;;10322606;28;89334;-42
2024/01/11 13:07:39;;;;;;;;;;;15.40;48.00;;;;;;10335603;28;88534;-43
2024/01/11 13:12:41;;;;;;;;;;;15.40;48.10;;;;;;10335182;28;89251;-41
2024/01/11 13:17:45;;;;;;;;;;;15.50;48.20;;;;;;10337278;28;89151;-42
2024/01/11 13:22:47;;;;;;;;;;;15.50;48.00;;;;;;10336497;28;89527;-43
2024/01/11 13:27:49;;;;;;;;;;;15.40;47.90;;;;;;10335380;28;88424;-45
2024/01/11 13:32:51;;;;;;;;;;;15.30;48.00;;;;;;10335467;28;89493;-45
2024/01/11 13:37:53;;;;;;;;;;;15.40;48.20;;;;;;10336232;28;90047;-42
2024/01/11 13:42:56;;;;;;;;;;;15.50;48.10;;;;;;10335433;28;89149;-41
2024/01/11 13:47:59;;;;;;;;;;;15.50;47.90;;;;;;10330950;28;88591;-43
2024/01/11 13:53:01;;;;;;;;;;;15.50;47.80;;;;;;10332488;28;89191;-43
2024/01/11 13:58:04;;;;;;;;;;;15.50;48.00;;;;;;10332693;28;88539;-42
2024/01/11 14:03:06;;;;;;;;;;;15.50;48.10;;;;;;10332360;28;88650;-42
2024/01/11 14:08:08;;;;;;;;;;;15.60;48.00;;;;;;10334546;28;89168;-43
2024/01/11 14:13:10;;;;;;;;;;;15.60;47.90;;;;;;10333447;28;89753;-43
2024/01/11 14:18:12;;;;;;;;;;;15.60;47.90;;;;;;10332252;28;88567;-42
2024/01/11 14:23:14;;;;;;;;;;;15.60;48.00;;;;;;10331505;28;89241;-49
2024/01/11 14:28:16;;;;;;;;;;;15.60;48.10;;;;;;10333170;28;89247;-44
2024/01/11 14:33:19;;;;;;;;;;;15.60;48.00;;;;;;10329208;28;88250;-43
2024/01/11 14:38:22;;;;;;;;;;;15.60;47.90;;;;;;10332572;28;88559;-44
2024/01/11 14:43:24;;;;;;;;;;;15.60;47.90;;;;;;10331870;28;90446;-41
2024/01/11 14:48:26;;;;;;;;;;;15.50;48.10;;;;;;10328104;28;89834;-43
2024/01/11 14:53:28;;;;;;;;;;;15.60;48.40;;;;;;10328813;28;89327;-43
2024/01/11 14:58:30;;;;;;;;;;;15.60;48.20;;;;;;10333295;28;88949;-42
2024/01/11 15:03:32;;;;;;;;;;;15.70;48.20;;;;;;10325568;28;88218;-42
2024/01/11 15:08:34;;;;;;;;;;;15.60;48.10;;;;;;10328362;28;89381;-42
2024/01/11 15:13:36;;;;;;;;;;;15.60;48.30;;;;;;10328124;28;87982;-41
2024/01/11 15:18:38;;;;;;;;;;;15.60;48.30;;;;;;10332207;28;89371;-41
2024/01/11 15:23:40;;;;;;;;;;;15.70;48.10;;;;;;10331512;28;90748;-41
2024/01/11 15:28:42;;;;;;;;;;;15.70;48.00;;;;;;10333316;28;88928;-42
2024/01/11 15:33:45;;;;;;;;;;;15.70;48.00;;;;;;10331682;28;88352;-42
2024/01/11 15:38:49;;;;;;;;;;;15.60;48.10;;;;;;10332342;28;88411;-42
2024/01/11 15:43:51;;;;;;;;;;;15.70;48.20;;;;;;10320782;28;89349;-43
2024/01/11 15:48:52;;;;;;;;;;;15.70;47.90;;;;;;10331489;28;89795;-42
2024/01/11 15:53:54;;;;;;;;;;;15.70;47.90;;;;;;10332216;28;89265;-60
2024/01/11 15:58:56;;;;;;;;;;;15.70;47.90;;;;;;10333454;28;89930;-44
2024/01/11 16:03:58;;;;;;;;;;;15.60;48.10;;;;;;10332773;28;88500;-43
2024/01/11 16:09:00;;;;;;;;;;;15.70;48.10;;;;;;10331020;28;89312;-53
2024/01/11 16:14:03;;;;;;;;;;;15.80;48.10;;;;;;10329846;28;88288;-44
2024/01/11 16:19:05;;;;;;;;;;;15.90;47.90;;;;;;10335263;28;88447;-45
2024/01/11 16:24:08;;;;;;;;;;;16.20;47.60;;;;;;10332913;28;89228;-49
2024/01/11 16:29:10;;;;;;;;;;;16.60;47.10;;;;;;10338812;28;89279;-44
2024/01/11 16:34:13;;;;;;;;;;;16.90;46.60;;;;;;10336834;28;88817;-43
2024/01/11 16:39:15;;;;;;;;;;;17.20;45.90;;;;;;10341359;28;89766;-47
2024/01/11 16:44:17;;;;;;;;;;;17.40;45.50;;;;;;10334794;28;90002;-47
2024/01/11 16:49:21;;;;;;;;;;;17.60;46.00;;;;;;10337440;28;91002;-50
2024/01/11 16:54:23;;;;;;;;;;;17.80;46.20;;;;;;10331608;28;88147;-45
2024/01/11 16:59:24;;;;;;;;;;;18.00;46.40;;;;;;10346459;28;88907;-48
2024/01/11 17:04:26;;;;;;;;;;;18.30;48.90;;;;;;10332822;28;88190;-46
2024/01/11 17:09:28;;;;;;;;;;;18.40;49.20;;;;;;10332738;28;91814;-47
2024/01/11 17:14:30;;;;;;;;;;;18.50;49.10;;;;;;10336753;28;88951;-45
2024/01/11 17:19:33;;;;;;;;;;;18.40;53.20;;;;;;10343970;28;90095;-44
2024/01/11 17:24:35;;;;;;;;;;;18.50;55.80;;;;;;10339428;28;88408;-47
2024/01/11 17:29:37;;;;;;;;;;;18.60;54.50;;;;;;10337976;28;88993;-44
2024/01/11 17:34:39;;;;;;;;;;;18.70;53.50;;;;;;10336017;28;89286;-44
2024/01/11 17:39:41;;;;;;;;;;;18.80;51.80;;;;;;10340586;28;90886;-54
2024/01/11 17:44:44;;;;;;;;;;;18.70;51.70;;;;;;10328832;28;89993;-46
2024/01/11 17:49:46;;;;;;;;;;;18.70;51.20;;;;;;10328176;28;90195;-44
2024/01/11 17:54:48;;;;;;;;;;;18.70;50.80;;;;;;10329422;28;89984;-43
2024/01/11 17:59:51;;;;;;;;;;;18.70;50.70;;;;;;10330234;28;90108;-45
2024/01/11 18:04:53;;;;;;;;;;;18.80;50.20;;;;;;10327044;28;89200;-46
2024/01/11 18:09:55;;;;;;;;;;;18.90;49.90;;;;;;10328786;28;90349;-47
2024/01/11 18:14:57;;;;;;;;;;;19.00;49.60;;;;;;10336737;28;88365;-47
2024/01/11 18:19:59;;;;;;;;;;;19.10;49.30;;;;;;10327977;28;89500;-44
2024/01/11 18:25:01;;;;;;;;;;;19.30;49.10;;;;;;10333161;28;90073;-46
2024/01/11 18:30:03;;;;;;;;;;;19.40;50.00;;;;;;10331406;28;90751;-45
2024/01/11 18:35:07;;;;;;;;;;;19.50;48.70;;;;;;10324430;28;89518;-46
2024/01/11 18:40:09;;;;;;;;;;;19.60;48.50;;;;;;10324709;28;89035;-48
2024/01/11 18:45:11;;;;;;;;;;;19.60;48.40;;;;;;10336383;28;89942;-47
2024/01/11 18:50:13;;;;;;;;;;;19.60;48.70;;;;;;10318474;28;89656;-45
2024/01/11 18:55:17;;;;;;;;;;;19.40;49.20;;;;;;10332144;28;89409;-49
2024/01/11 19:00:19;;;;;;;;;;;19.20;49.80;;;;;;10330390;28;89498;-47
2024/01/11 19:05:22;;;;;;;;;;;19.00;50.30;;;;;;10339763;28;88242;-44
2024/01/11 19:10:24;;;;;;;;;;;18.90;50.60;;;;;;10338089;28;88880;-50
2024/01/11 19:15:26;;;;;;;;;;;18.80;50.90;;;;;;10331096;28;90098;-43
2024/01/11 19:20:28;;;;;;;;;;;18.80;51.10;;;;;;10330332;28;90020;-51
2024/01/11 19:25:31;;;;;;;;;;;18.80;51.40;;;;;;10338862;28;89822;-47
2024/01/11 19:30:34;;;;;;;;;;;18.80;51.60;;;;;;10345691;28;88966;-47
2024/01/11 19:35:36;;;;;;;;;;;18.80;51.60;;;;;;10331537;28;89862;-44
2024/01/11 19:40:39;;;;;;;;;;;18.80;51.90;;;;;;10315727;28;89726;-47
2024/01/11 19:45:41;;;;;;;;;;;18.80;52.00;;;;;;10328929;28;89126;-45
2024/01/11 19:50:43;;;;;;;;;;;18.80;52.10;;;;;;10331620;28;90920;-47
2024/01/11 19:55:45;;;;;;;;;;;18.80;52.20;;;;;;10335761;28;89324;-47
2024/01/11 20:00:47;;;;;;;;;;;18.90;52.20;;;;;;10333133;28;89052;-43
2024/01/11 20:05:49;;;;;;;;;;;18.90;52.00;;;;;;10334997;28;90050;-44
2024/01/11 20:10:51;;;;;;;;;;;18.80;51.80;;;;;;10328571;28;90913;-44
2024/01/11 20:15:53;;;;;;;;;;;18.70;51.80;;;;;;10329331;28;88353;-49
2024/01/11 20:20:56;;;;;;;;;;;18.70;51.60;;;;;;10329258;28;90276;-49
2024/01/11 20:26:02;;;;;;;;;;;18.60;51.60;;;;;;10318683;28;89985;-46
2024/01/11 20:31:04;;;;;;;;;;;18.60;51.50;;;;;;10329345;28;88952;-45
2024/01/11 20:36:07;;;;;;;;;;;18.70;51.30;;;;;;10316845;28;89133;-44
2024/01/11 20:41:12;;;;;;;;;;;18.70;51.00;;;;;;10330294;28;89356;-48
2024/01/11 20:46:18;;;;;;;;;;;18.70;50.80;;;;;;10328869;28;89744;-45
2024/01/11 20:51:20;;;;;;;;;;;18.70;50.70;;;;;;10328261;28;89046;-47
2024/01/11 20:56:22;;;;;;;;;;;18.60;50.70;;;;;;10340174;28;88781;-45
2024/01/11 21:01:24;;;;;;;;;;;18.40;50.80;;;;;;10328121;28;91759;-47
2024/01/11 21:06:26;;;;;;;;;;;18.20;50.90;;;;;;10318745;28;90077;-46
2024/01/11 21:11:28;;;;;;;;;;;18.10;51.20;;;;;;10333622;28;89359;-45
2024/01/11 21:16:30;;;;;;;;;;;17.90;51.30;;;;;;10346205;28;89031;-45
2024/01/11 21:21:32;;;;;;;;;;;17.80;51.50;;;;;;10341124;28;89210;-48
2024/01/11 21:26:34;;;;;;;;;;;17.60;51.70;;;;;;10340452;28;90011;-44
2024/01/11 21:31:36;;;;;;;;;;;17.50;51.90;;;;;;10331765;28;90087;-49
2024/01/11 21:36:38;;;;;;;;;;;17.40;52.10;;;;;;10339059;28;90256;-44
2024/01/11 21:41:40;;;;;;;;;;;17.20;52.20;;;;;;10333218;28;89046;-44
2024/01/11 21:46:42;;;;;;;;;;;17.10;52.40;;;;;;10333448;28;89040;-49
2024/01/11 21:51:46;;;;;;;;;;;17.00;52.40;;;;;;10335643;28;90814;-44
2024/01/11 21:56:49;;;;;;;;;;;16.90;52.50;;;;;;10339624;28;90037;-46
2024/01/11 22:01:51;;;;;;;;;;;16.80;52.50;;;;;;10365293;27;88977;-44
2024/01/11 22:06:54;;;;;;;;;;;16.70;52.60;;;;;;10334370;28;89282;-47
2024/01/11 22:11:57;;;;;;;;;;;16.60;52.70;;;;;;10335466;28;90092;-49
2024/01/11 22:16:59;;;;;;;;;;;16.60;52.80;;;;;;10333000;28;90096;-43
2024/01/11 22:22:03;;;;;;;;;;;16.50;52.90;;;;;;10332213;28;89137;-47
2024/01/11 22:27:04;;;;;;;;;;;16.40;52.80;;;;;;10323058;28;89543;-45
2024/01/11 22:32:06;;;;;;;;;;;16.40;52.90;;;;;;10332662;28;89044;-47
2024/01/11 22:37:08;;;;;;;;;;;16.30;52.90;;;;;;10345958;28;88681;-44
2024/01/11 22:42:10;;;;;;;;;;;16.20;52.90;;;;;;10342005;28;90232;-46
2024/01/11 22:47:11;;;;;;;;;;;16.20;52.80;;;;;;10335404;28;89943;-49
2024/01/11 22:52:13;;;;;;;;;;;16.10;52.80;;;;;;10332619;28;90053;-46
2024/01/11 22:57:15;;;;;;;;;;;16.00;52.80;;;;;;10331647;28;89664;-45
2024/01/11 23:02:17;;;;;;;;;;;16.00;52.80;;;;;;10334233;28;89917;-45
2024/01/11 23:07:19;;;;;;;;;;;16.00;53.00;;;;;;10329945;28;90954;-45
2024/01/11 23:12:21;;;;;;;;;;;16.00;52.90;;;;;;10329534;28;89568;-48
2024/01/11 23:17:23;;;;;;;;;;;15.90;52.60;;;;;;10330347;28;89974;-46
2024/01/11 23:22:24;;;;;;;;;;;16.00;52.30;;;;;;10328051;28;89088;-45
2024/01/11 23:27:26;;;;;;;;;;;16.00;51.80;;;;;;10353951;28;89973;-44
2024/01/11 23:32:28;;;;;;;;;;;16.10;51.50;;;;;;10328666;28;89850;-43
2024/01/11 23:37:30;;;;;;;;;;;16.10;51.20;;;;;;10335046;28;90257;-44
2024/01/11 23:42:32;;;;;;;;;;;16.10;51.10;;;;;;10328741;28;89635;-43
2024/01/11 23:47:34;;;;;;;;;;;16.10;50.90;;;;;;10328300;28;88815;-48
2024/01/11 23:52:36;;;;;;;;;;;16.00;50.70;;;;;;10330546;28;89261;-42
2024/01/11 23:57:38;;;;;;;;;;;15.90;50.70;;;;;;10328103;28;89490;-44
